Airfield :
LOGIN :

Register | Disclaimer

   EN    FR    IT 

 










Legend :    VFR   Marginal VFR   IFR   Intensive IFR   Very Intensive IFR
Visi :
Ceiling :
>= 8 km
>= 3000ft
5 to 8 km
1000 to 3000 ft
1500m to 5 km
500 to 1000 ft
800 to 1500m
200 to 500 ft
< 800m
< 200 ft
Symbols :   Thunderstorms  Fog  Heavy snow  Heavy precipitations  Wind > 20 kt
SIGMETs :     Misc.  Thunderstorms  Icing  Turbulence  Mountain Waves  Volcanic Ashes







- Airport Elevation : 755 ft
- IATA code : DRS


EDDC - Dresden Klotzsche

CURRENT METAR :
  • 180720Z 27009KT 230V310 9999 FEW016 09/06 Q1022 NOSIG

EXPIRED METARs :
  • 180650Z 28008KT 230V350 9999 FEW028 09/06 Q1022 NOSIG
  • 180620Z 26007KT 230V300 9999 FEW028 08/06 Q1022 NOSIG
  • 180550Z 25006KT 220V300 9999 FEW030 08/06 Q1021 NOSIG
  • 180520Z 28006KT 240V310 9999 FEW028 07/06 Q1021 NOSIG
  • 180450Z 28007KT 240V310 9999 FEW028 07/05 Q1021 NOSIG

TAF TAF EDDC
Valid from the 18 at 06:00 until the 19 at 06:00 UTC


180500Z 1806/1906 28009KT 9999 FEW045
BECMG 1807/1809 30015G25KT
BECMG 1815/1817 29007KT
No reported NOTAMs for that airfield.



MET'MAP, your aeronautical weather chart ! - Copyright ORBIFLY December 2007 - Disclaimer

ORBIFLY MET'MAP TEAM :

Programming & Development : Alexandra Zaïnal
Concept & Development : Baudouin d'Aumeries
Co-Development & Prog : Marc-Olivier Méhu
Technical & hardware support : Manuel Goepfert

Contact : metmap@orbifly.com




SOURCES & CREDITS :

   NOAA